Time;durP1;ratioP1;P1;durP2;ratioP2;P2;SDS_P1;SDS_P2;PMS_P1;PMS_P2;Temp;Humidity;BMP_temperature;BMP_pressure;BME280_temperature;BME280_humidity;BME280_pressure;Samples;Min_cycle;Max_cycle;Signal;HPM_P1;HPM_P2
2021/12/21 00:00:56;;;;;;;15.43;6.22;;;-1.40;83.10;;;;;;5058716;28;46032;-68
2021/12/21 00:03:22;;;;;;;20.95;6.05;;;-1.50;83.00;;;;;;5073984;28;46314;-68
2021/12/21 00:05:48;;;;;;;18.48;6.60;;;-1.50;83.00;;;;;;5059580;28;46426;-68
2021/12/21 00:08:16;;;;;;;20.70;7.03;;;-1.60;82.90;;;;;;5058121;28;47874;-68
2021/12/21 00:10:45;;;;;;;20.98;7.40;;;-1.60;82.80;;;;;;5060112;28;46413;-68
2021/12/21 00:21:34;;;;;;;18.63;7.32;;;-1.70;82.50;;;;;;5072033;28;45925;-68
2021/12/21 00:23:49;;;;;;;19.08;6.35;;;-1.70;82.50;;;;;;5070030;28;46375;-68
2021/12/21 00:26:17;;;;;;;16.35;7.25;;;-1.80;82.40;;;;;;5058724;28;45863;-68
2021/12/21 00:31:23;;;;;;;11.25;6.15;;;-1.80;82.40;;;;;;5081575;28;46350;-68
2021/12/21 00:33:49;;;;;;;15.68;7.60;;;-1.80;82.30;;;;;;5073147;28;46252;-68
2021/12/21 00:36:23;;;;;;;16.90;7.67;;;-1.80;82.40;;;;;;5056306;28;46353;-68
2021/12/21 00:38:50;;;;;;;14.10;6.97;;;-1.80;82.30;;;;;;5052349;28;47105;-68
2021/12/21 00:41:17;;;;;;;18.85;6.53;;;-1.90;82.20;;;;;;5053813;28;46624;-68
2021/12/21 00:43:43;;;;;;;16.95;6.60;;;-1.90;82.30;;;;;;5054360;28;45789;-67
2021/12/21 00:46:09;;;;;;;17.13;6.03;;;-1.90;82.40;;;;;;5055296;28;46311;-67
2021/12/21 00:48:36;;;;;;;15.30;6.63;;;-1.90;82.40;;;;;;5053396;28;47900;-67
2021/12/21 00:51:08;;;;;;;13.52;5.95;;;-1.90;82.30;;;;;;5054005;28;46487;-68
2021/12/21 00:53:36;;;;;;;12.10;5.68;;;-1.90;82.30;;;;;;5052670;28;46362;-67
2021/12/21 00:56:03;;;;;;;16.58;6.35;;;-1.90;82.30;;;;;;5053896;28;46279;-68
2021/12/21 00:58:29;;;;;;;13.80;6.00;;;-1.90;82.20;;;;;;5059423;28;49104;-68
2021/12/21 01:00:56;;;;;;;16.87;6.50;;;-1.90;82.10;;;;;;5057676;28;46406;-68
2021/12/21 01:03:21;;;;;;;20.38;7.00;;;-1.90;82.10;;;;;;5056261;28;46378;-67
2021/12/21 01:08:17;;;;;;;19.10;6.90;;;-1.90;81.90;;;;;;5072548;28;46078;-68
2021/12/21 01:13:33;;;;;;;17.08;6.22;;;-2.00;81.80;;;;;;5072965;27;46244;-68
2021/12/21 01:18:39;;;;;;;12.10;6.15;;;-2.10;81.70;;;;;;5071532;28;46361;-68
2021/12/21 01:26:17;;;;;;;14.35;5.63;;;-2.20;81.70;;;;;;5066390;28;46377;-68
2021/12/21 01:36:41;;;;;;;21.23;5.93;;;-2.20;81.70;;;;;;5071734;28;46298;-67
2021/12/21 01:41:42;;;;;;;15.68;7.63;;;-2.30;81.70;;;;;;5073925;28;46432;-68
2021/12/21 01:49:46;;;;;;;14.75;6.50;;;-2.30;81.60;;;;;;5069495;28;46256;-69
2021/12/21 01:52:14;;;;;;;13.90;6.60;;;-2.30;81.60;;;;;;5055581;28;46468;-67
2021/12/21 01:54:41;;;;;;;14.60;6.53;;;-2.30;81.60;;;;;;5056223;28;46324;-68
2021/12/21 01:57:08;;;;;;;16.15;7.80;;;-2.30;81.70;;;;;;5058303;28;46323;-68
2021/12/21 01:59:35;;;;;;;17.05;6.43;;;-2.30;81.60;;;;;;5056983;28;46427;-68
2021/12/21 02:02:06;;;;;;;17.58;6.85;;;-2.30;81.90;;;;;;5059051;28;46350;-68
2021/12/21 02:04:31;;;;;;;12.88;6.50;;;-2.30;81.80;;;;;;5056562;28;46347;-68
2021/12/21 02:06:57;;;;;;;18.80;8.03;;;-2.30;81.90;;;;;;5056200;28;46315;-67
2021/12/21 02:09:30;;;;;;;16.77;6.77;;;-2.40;81.90;;;;;;5058394;28;49016;-68
2021/12/21 02:11:56;;;;;;;14.10;6.75;;;-2.40;81.90;;;;;;5055124;28;46445;-68
2021/12/21 02:14:22;;;;;;;12.23;6.53;;;-2.40;81.80;;;;;;5055779;28;46402;-67
2021/12/21 02:17:01;;;;;;;17.57;8.70;;;-2.40;81.80;;;;;;5057790;28;46719;-68
2021/12/21 02:19:35;;;;;;;20.67;6.80;;;-2.40;81.90;;;;;;5057970;28;47998;-68
2021/12/21 02:22:11;;;;;;;20.45;6.03;;;-2.50;82.10;;;;;;5047925;28;46336;-69
2021/12/21 02:25:08;;;;;;;22.45;7.63;;;-2.50;82.00;;;;;;5048139;28;46303;-68
2021/12/21 02:27:42;;;;;;;21.83;8.38;;;-2.50;82.00;;;;;;5074040;28;46451;-68
2021/12/21 02:30:12;;;;;;;19.88;8.75;;;-2.50;82.00;;;;;;5061058;28;47941;-68
2021/12/21 02:32:37;;;;;;;15.18;7.60;;;-2.50;83.00;;;;;;5061612;28;45909;-69
2021/12/21 02:35:04;;;;;;;17.87;9.53;;;-2.50;81.90;;;;;;5051632;28;45797;-68
2021/12/21 02:37:29;;;;;;;30.58;10.23;;;-2.60;81.70;;;;;;5056727;28;46573;-69
2021/12/21 02:39:55;;;;;;;21.40;9.47;;;-2.60;81.70;;;;;;5078204;28;46323;-68
2021/12/21 02:42:21;;;;;;;26.67;10.53;;;-2.70;81.70;;;;;;5053369;28;46457;-67
2021/12/21 02:44:48;;;;;;;27.77;10.33;;;-2.80;81.70;;;;;;5067918;28;46326;-66
2021/12/21 02:47:14;;;;;;;34.03;8.77;;;-2.80;81.70;;;;;;5070686;28;46639;-68
2021/12/21 02:49:40;;;;;;;17.60;7.20;;;-2.80;81.70;;;;;;5052201;28;48078;-68
2021/12/21 02:52:06;;;;;;;16.83;8.30;;;-2.90;81.60;;;;;;5053485;28;46276;-68
2021/12/21 02:54:31;;;;;;;13.50;7.15;;;-2.80;81.50;;;;;;5053361;28;46496;-68
2021/12/21 02:56:57;;;;;;;16.33;7.00;;;-2.80;81.50;;;;;;5052255;28;45891;-68
2021/12/21 02:59:26;;;;;;;13.20;6.93;;;-2.80;81.40;;;;;;5054868;28;46239;-68
2021/12/21 03:01:52;;;;;;;13.93;7.05;;;-2.80;81.50;;;;;;5054982;27;46353;-68
2021/12/21 03:04:19;;;;;;;19.17;8.27;;;-2.70;81.50;;;;;;5052255;28;45838;-68
2021/12/21 03:11:57;;;;;;;22.23;8.13;;;-2.80;81.60;;;;;;5069887;27;46128;-69
2021/12/21 03:14:23;;;;;;;15.88;7.80;;;-2.80;81.70;;;;;;5052141;28;46424;-68
2021/12/21 03:16:49;;;;;;;18.30;9.85;;;-2.70;81.80;;;;;;5049485;28;46636;-67
2021/12/21 03:19:15;;;;;;;19.40;8.93;;;-2.70;81.80;;;;;;5057372;28;46463;-68
2021/12/21 03:21:41;;;;;;;23.90;9.87;;;-2.70;81.90;;;;;;5052277;28;46390;-68
2021/12/21 03:24:08;;;;;;;28.90;10.70;;;-2.70;82.10;;;;;;5049395;27;45819;-69
2021/12/21 03:26:34;;;;;;;25.23;9.93;;;-2.70;82.30;;;;;;5053742;28;46457;-68
2021/12/21 03:29:03;;;;;;;18.38;10.00;;;-2.70;82.50;;;;;;5057026;28;46371;-68
2021/12/21 03:31:29;;;;;;;27.65;9.77;;;-2.60;82.70;;;;;;5060451;28;46527;-68
2021/12/21 03:33:55;;;;;;;21.70;9.83;;;-2.70;82.70;;;;;;5055475;27;46380;-68
2021/12/21 03:36:21;;;;;;;18.80;10.10;;;-2.70;82.70;;;;;;5074163;27;46481;-68
2021/12/21 03:38:56;;;;;;;19.60;10.07;;;-2.70;82.70;;;;;;5056370;28;48861;-67
2021/12/21 03:41:22;;;;;;;30.27;10.50;;;-2.70;82.60;;;;;;5061020;28;45971;-68
2021/12/21 03:43:48;;;;;;;17.80;10.68;;;-2.70;82.70;;;;;;5056970;28;46314;-68
2021/12/21 03:46:15;;;;;;;24.00;11.00;;;-2.70;82.70;;;;;;5062943;27;46817;-68
2021/12/21 03:48:48;;;;;;;16.35;8.77;;;-2.80;82.70;;;;;;5062613;28;47967;-69
2021/12/21 03:51:18;;;;;;;23.80;10.10;;;-2.80;82.80;;;;;;5057540;28;46039;-67
2021/12/21 03:53:45;;;;;;;22.40;11.82;;;-2.80;82.50;;;;;;5056156;28;46444;-67
2021/12/21 03:58:40;;;;;;;20.20;9.55;;;-2.80;82.30;;;;;;5074366;28;46376;-68
2021/12/21 04:01:09;;;;;;;21.58;10.00;;;-2.80;82.20;;;;;;5056607;28;46310;-69
2021/12/21 04:03:38;;;;;;;24.58;10.98;;;-2.80;82.20;;;;;;5057135;28;46362;-68
2021/12/21 04:06:06;;;;;;;24.38;10.93;;;-2.80;82.30;;;;;;5079288;28;46366;-69
2021/12/21 04:08:34;;;;;;;21.58;11.63;;;-2.80;83.50;;;;;;5058600;28;46382;-67
2021/12/21 04:11:01;;;;;;;18.63;10.75;;;-2.90;82.30;;;;;;5058843;28;46164;-67
2021/12/21 04:13:29;;;;;;;20.83;9.82;;;-2.90;82.30;;;;;;5061574;28;45910;-68
2021/12/21 04:15:58;;;;;;;22.63;9.73;;;-2.90;82.40;;;;;;5064812;28;46414;-68
2021/12/21 04:18:24;;;;;;;18.23;10.55;;;-2.90;82.40;;;;;;5056002;28;46346;-65
2021/12/21 04:20:50;;;;;;;18.10;10.50;;;-2.90;82.30;;;;;;5059173;28;46379;-68
2021/12/21 04:23:16;;;;;;;25.13;11.63;;;-3.00;82.10;;;;;;5060695;28;46404;-68
2021/12/21 04:25:43;;;;;;;18.83;9.82;;;-3.00;82.30;;;;;;5068835;27;46316;-67
2021/12/21 04:28:09;;;;;;;21.67;11.10;;;-3.00;82.20;;;;;;5054530;28;46503;-68
2021/12/21 04:30:35;;;;;;;25.90;10.50;;;-3.10;82.10;;;;;;5062697;28;46464;-67
2021/12/21 04:33:00;;;;;;;24.67;10.73;;;-3.10;82.10;;;;;;5064595;28;46510;-67
2021/12/21 04:35:26;;;;;;;18.63;9.60;;;-3.10;82.20;;;;;;5053875;28;46308;-67
2021/12/21 04:38:01;;;;;;;22.27;11.13;;;-3.10;82.20;;;;;;5052777;28;47915;-67
2021/12/21 04:40:39;;;;;;;16.80;9.70;;;-3.10;82.20;;;;;;5060378;27;46446;-68
2021/12/21 04:43:06;;;;;;;18.73;10.15;;;-3.10;82.00;;;;;;5066071;28;46464;-68
2021/12/21 04:45:34;;;;;;;26.15;11.20;;;-3.10;81.80;;;;;;5058171;27;46686;-67
2021/12/21 04:47:59;;;;;;;33.35;16.67;;;-3.10;81.70;;;;;;5062764;28;48173;-67
2021/12/21 04:50:25;;;;;;;33.38;20.17;;;-3.10;81.50;;;;;;5056081;28;46315;-67
2021/12/21 04:52:51;;;;;;;28.50;13.90;;;-3.10;81.90;;;;;;5056050;28;46406;-67
2021/12/21 04:55:17;;;;;;;31.60;12.23;;;-3.10;82.60;;;;;;5055765;28;46664;-67
2021/12/21 04:57:43;;;;;;;24.50;13.37;;;-3.10;82.60;;;;;;5070561;27;46404;-67
2021/12/21 05:00:13;;;;;;;31.75;12.35;;;-3.10;82.50;;;;;;5052629;28;46438;-67
2021/12/21 05:02:39;;;;;;;28.98;14.00;;;-3.00;82.30;;;;;;5062025;28;45814;-68
2021/12/21 05:05:06;;;;;;;45.90;19.30;;;-3.00;82.00;;;;;;5055973;27;46323;-67
2021/12/21 05:07:34;;;;;;;60.80;29.70;;;-3.10;81.70;;;;;;5069589;27;47467;-67
2021/12/21 05:10:08;;;;;;;65.90;30.45;;;-3.10;81.70;;;;;;5053996;28;46450;-67
2021/12/21 05:12:36;;;;;;;104.68;50.20;;;-3.20;81.80;;;;;;5057833;28;46270;-67
2021/12/21 05:15:03;;;;;;;112.13;55.33;;;-3.20;82.10;;;;;;5051718;28;46646;-67
2021/12/21 05:17:28;;;;;;;69.47;33.67;;;-3.20;82.00;;;;;;5064485;28;46502;-66
2021/12/21 05:19:57;;;;;;;51.43;26.97;;;-3.20;81.90;;;;;;5071836;28;46306;-66
2021/12/21 05:22:23;;;;;;;31.88;16.25;;;-3.30;81.50;;;;;;5055883;28;46411;-68
2021/12/21 05:24:50;;;;;;;25.30;12.47;;;-3.30;81.50;;;;;;5052561;28;46565;-67
2021/12/21 05:27:16;;;;;;;27.10;11.48;;;-3.30;81.50;;;;;;5062476;28;48939;-68
2021/12/21 05:29:42;;;;;;;29.67;12.00;;;-3.30;81.40;;;;;;5064895;28;46271;-67
2021/12/21 05:32:08;;;;;;;23.03;13.47;;;-3.30;81.30;;;;;;5057781;28;46424;-65
2021/12/21 05:34:39;;;;;;;27.57;15.43;;;-3.30;81.50;;;;;;5080428;28;46024;-68
2021/12/21 05:37:07;;;;;;;46.10;17.48;;;-3.30;81.40;;;;;;5057963;28;47987;-67
2021/12/21 05:39:55;;;;;;;56.33;16.83;;;-3.20;81.40;;;;;;5056554;28;46617;-65
2021/12/21 05:42:24;;;;;;;40.55;18.67;;;-3.20;81.10;;;;;;5063682;28;46416;-68
2021/12/21 05:44:53;;;;;;;56.78;19.75;;;-3.10;80.80;;;;;;5056524;28;46391;-65
2021/12/21 05:47:19;;;;;;;51.72;20.85;;;-3.00;80.50;;;;;;5063063;28;46465;-67
2021/12/21 05:49:45;;;;;;;60.45;21.50;;;-2.90;80.30;;;;;;5075902;28;46366;-68
2021/12/21 05:52:11;;;;;;;46.78;18.15;;;-2.90;80.10;;;;;;5058144;28;46387;-68
2021/12/21 05:54:42;;;;;;;52.70;18.90;;;-2.80;79.80;;;;;;5057424;28;46381;-67
2021/12/21 05:57:07;;;;;;;28.05;14.23;;;-2.70;79.60;;;;;;5065391;28;47400;-66
2021/12/21 05:59:33;;;;;;;29.77;14.30;;;-2.60;79.40;;;;;;5052226;28;46434;-68
2021/12/21 06:01:59;;;;;;;34.03;15.00;;;-2.50;79.10;;;;;;5055489;28;46464;-68
2021/12/21 06:04:28;;;;;;;35.35;15.95;;;-2.30;78.70;;;;;;5051672;28;46577;-67
2021/12/21 06:06:54;;;;;;;31.27;15.70;;;-2.10;78.40;;;;;;5055472;28;46377;-67
2021/12/21 06:09:20;;;;;;;47.77;17.40;;;-2.00;78.30;;;;;;5058578;28;46417;-67
2021/12/21 06:12:13;;;;;;;36.93;17.53;;;-1.90;78.30;;;;;;5056365;28;46636;-67
2021/12/21 06:26:03;;;;;;;38.15;15.70;;;-1.50;78.80;;;;;;5076831;28;46325;-67
2021/12/21 06:28:30;;;;;;;32.15;14.30;;;-1.50;78.70;;;;;;5056234;28;48714;-67
2021/12/21 06:30:58;;;;;;;28.85;14.13;;;-1.40;78.70;;;;;;5053375;28;46576;-68
2021/12/21 06:33:24;;;;;;;26.80;14.23;;;-1.30;78.70;;;;;;5057268;28;46735;-67
2021/12/21 06:35:52;;;;;;;25.77;14.48;;;-1.40;78.80;;;;;;5063479;28;46566;-67
2021/12/21 06:38:18;;;;;;;24.15;12.90;;;-1.40;78.80;;;;;;5056188;28;47689;-65
2021/12/21 06:40:46;;;;;;;25.88;13.85;;;-1.30;79.00;;;;;;5055953;28;46786;-66
2021/12/21 06:43:14;;;;;;;31.17;14.02;;;-1.30;78.90;;;;;;5059974;28;46357;-66
2021/12/21 06:53:58;;;;;;;22.17;12.10;;;-1.20;79.00;;;;;;5066356;28;46382;-64
2021/12/21 06:56:26;;;;;;;25.00;13.43;;;-1.20;79.00;;;;;;5055929;28;46380;-66
2021/12/21 06:58:55;;;;;;;21.17;11.75;;;-1.30;79.20;;;;;;5054930;28;47788;-67
2021/12/21 07:01:28;;;;;;;20.67;11.60;;;-1.20;79.30;;;;;;5053176;28;46505;-68
2021/12/21 07:03:55;;;;;;;20.20;11.43;;;-1.20;79.10;;;;;;5059355;28;46277;-67
2021/12/21 07:06:23;;;;;;;49.70;14.50;;;-1.10;79.00;;;;;;5079372;28;46477;-67
2021/12/21 07:19:21;;;;;;;22.70;12.98;;;-1.00;79.00;;;;;;5070250;28;46459;-67
2021/12/21 07:21:49;;;;;;;22.63;12.05;;;-1.10;79.00;;;;;;5053642;28;46389;-67
2021/12/21 07:24:15;;;;;;;25.48;11.80;;;-1.00;79.20;;;;;;5054012;28;46515;-67
2021/12/21 07:26:41;;;;;;;26.80;12.53;;;-1.00;79.00;;;;;;5048873;28;46219;-67
2021/12/21 07:29:07;;;;;;;25.90;13.40;;;-0.90;78.90;;;;;;5050492;28;46425;-65
2021/12/21 07:31:32;;;;;;;19.77;11.80;;;-0.90;78.80;;;;;;5057653;28;46480;-66
2021/12/21 07:34:00;;;;;;;39.33;12.60;;;-0.80;78.80;;;;;;5053693;28;45849;-66
2021/12/21 07:36:29;;;;;;;23.65;12.10;;;-0.80;78.50;;;;;;5067805;28;46495;-67
2021/12/21 07:38:56;;;;;;;28.83;14.82;;;-0.80;79.70;;;;;;5057681;28;48039;-66
2021/12/21 07:41:21;;;;;;;43.90;12.65;;;-0.70;78.30;;;;;;5050720;28;46445;-65
2021/12/21 07:43:47;;;;;;;36.33;13.47;;;-0.70;78.60;;;;;;5053213;28;46271;-66
2021/12/21 07:46:15;;;;;;;34.20;13.30;;;-0.80;78.80;;;;;;5051815;28;46444;-68
2021/12/21 07:48:41;;;;;;;27.20;12.27;;;-0.90;79.00;;;;;;5053254;28;46542;-67
2021/12/21 07:51:08;;;;;;;25.50;12.00;;;-0.80;79.30;;;;;;5070222;28;46445;-65
2021/12/21 07:53:35;;;;;;;32.40;12.60;;;-0.70;79.20;;;;;;5058488;28;46448;-66
2021/12/21 07:56:02;;;;;;;32.33;14.55;;;-0.60;78.80;;;;;;5058992;28;46394;-66
2021/12/21 07:58:32;;;;;;;36.88;17.83;;;-0.70;78.80;;;;;;5052495;28;46399;-65
2021/12/21 08:01:04;;;;;;;36.33;14.27;;;-0.60;78.90;;;;;;5060313;28;46366;-66
2021/12/21 08:03:32;;;;;;;30.45;14.57;;;-0.50;78.50;;;;;;5057743;28;46512;-65
2021/12/21 08:05:59;;;;;;;28.13;13.30;;;-0.50;78.20;;;;;;5051746;28;46352;-67
2021/12/21 08:08:28;;;;;;;25.15;12.40;;;-0.60;78.80;;;;;;5051855;28;47802;-66
2021/12/21 08:11:17;;;;;;;28.15;11.95;;;-0.60;79.10;;;;;;5053409;28;46430;-66
2021/12/21 08:13:46;;;;;;;28.05;14.48;;;-0.60;79.30;;;;;;5052627;28;46422;-66
2021/12/21 08:16:13;;;;;;;25.58;12.63;;;-0.60;79.20;;;;;;5059239;28;46280;-66
2021/12/21 08:18:39;;;;;;;20.88;10.75;;;-0.50;79.70;;;;;;5059784;28;48048;-66
2021/12/21 08:21:06;;;;;;;23.65;10.93;;;-0.40;79.40;;;;;;5059503;28;46313;-66
2021/12/21 08:23:32;;;;;;;22.88;12.57;;;-0.30;79.00;;;;;;5070314;28;46394;-66
2021/12/21 08:26:05;;;;;;;25.83;11.23;;;-0.20;78.70;;;;;;5054712;28;46315;-67
2021/12/21 08:28:31;;;;;;;25.77;13.25;;;-0.10;78.20;;;;;;5065553;28;48989;-67
2021/12/21 08:30:58;;;;;;;28.07;11.93;;;0.00;77.90;;;;;;5060807;28;46229;-67
2021/12/21 08:33:23;;;;;;;25.25;13.38;;;0.10;77.40;;;;;;5059754;28;46381;-68
2021/12/21 08:35:49;;;;;;;25.43;12.60;;;0.20;77.00;;;;;;5078814;28;46127;-65
2021/12/21 08:38:17;;;;;;;26.50;12.00;;;0.30;77.00;;;;;;5057638;28;47956;-66
2021/12/21 08:40:48;;;;;;;25.00;12.57;;;0.40;76.80;;;;;;5059796;28;46456;-67
2021/12/21 08:43:17;;;;;;;23.65;12.85;;;0.40;76.70;;;;;;5060824;28;46533;-66
2021/12/21 08:45:45;;;;;;;27.63;11.55;;;0.30;76.90;;;;;;5059354;28;46457;-66
2021/12/21 08:48:13;;;;;;;32.63;13.23;;;0.30;77.20;;;;;;5058836;28;47837;-66
2021/12/21 08:50:39;;;;;;;30.55;12.00;;;0.30;77.30;;;;;;5059104;28;46503;-67
2021/12/21 08:53:05;;;;;;;25.05;11.98;;;0.30;77.40;;;;;;5061868;28;46221;-67
2021/12/21 08:55:34;;;;;;;24.95;13.15;;;0.30;77.30;;;;;;5051109;28;46789;-66
2021/12/21 08:58:02;;;;;;;28.88;11.63;;;0.30;77.20;;;;;;5050799;28;46370;-66
2021/12/21 09:00:28;;;;;;;30.55;15.48;;;0.30;77.40;;;;;;5051263;28;46395;-66
2021/12/21 09:02:54;;;;;;;27.07;13.27;;;0.40;77.20;;;;;;5056677;28;46517;-66
2021/12/21 09:05:30;;;;;;;36.03;14.40;;;0.40;77.50;;;;;;5057490;28;46193;-65
2021/12/21 09:07:56;;;;;;;22.38;11.68;;;0.40;77.70;;;;;;5076130;28;46484;-66
2021/12/21 09:10:23;;;;;;;22.80;11.93;;;0.40;77.60;;;;;;5081141;28;46491;-65
2021/12/21 09:12:50;;;;;;;24.83;11.95;;;0.50;77.30;;;;;;5055848;28;46453;-65
2021/12/21 09:15:18;;;;;;;21.58;11.98;;;0.50;77.10;;;;;;5049175;28;46345;-64
2021/12/21 09:17:47;;;;;;;25.83;11.52;;;0.50;76.60;;;;;;5051414;28;47263;-66
2021/12/21 09:20:15;;;;;;;22.88;11.93;;;0.50;76.70;;;;;;5052161;28;45878;-66
2021/12/21 09:22:45;;;;;;;23.33;12.18;;;0.50;77.10;;;;;;5051397;28;46402;-66
2021/12/21 09:25:13;;;;;;;24.73;11.30;;;0.40;76.80;;;;;;5056426;28;45927;-67
2021/12/21 09:27:42;;;;;;;20.30;10.88;;;0.40;77.00;;;;;;5055198;28;48910;-66
2021/12/21 09:30:11;;;;;;;23.42;10.85;;;0.50;76.80;;;;;;5049448;28;46341;-66
2021/12/21 09:32:36;;;;;;;26.48;11.50;;;0.50;76.80;;;;;;5064401;28;46316;-66
2021/12/21 09:35:06;;;;;;;23.13;10.03;;;0.50;76.60;;;;;;5052837;28;46524;-66
2021/12/21 09:37:32;;;;;;;19.15;10.75;;;0.50;76.40;;;;;;5071557;28;47653;-65
2021/12/21 09:40:07;;;;;;;24.02;10.50;;;0.60;76.40;;;;;;5074090;28;46388;-66
2021/12/21 09:42:35;;;;;;;20.92;10.40;;;0.60;76.00;;;;;;5064079;28;45849;-66
2021/12/21 09:45:02;;;;;;;14.73;9.93;;;0.70;76.00;;;;;;5054227;28;46419;-66
2021/12/21 09:47:28;;;;;;;24.30;10.88;;;0.80;76.00;;;;;;5051504;28;48042;-66
2021/12/21 09:49:55;;;;;;;17.35;9.57;;;0.80;75.80;;;;;;5054246;28;45862;-66
2021/12/21 09:52:23;;;;;;;20.35;10.25;;;0.80;75.70;;;;;;5053379;28;46396;-65
2021/12/21 09:54:55;;;;;;;22.05;11.25;;;0.80;75.80;;;;;;5054810;28;46388;-65
2021/12/21 09:57:21;;;;;;;18.50;9.73;;;0.80;76.00;;;;;;5058024;28;49202;-65
2021/12/21 09:59:48;;;;;;;23.50;10.18;;;0.70;76.10;;;;;;5056567;28;46284;-67
2021/12/21 10:02:20;;;;;;;24.13;10.25;;;0.80;75.80;;;;;;5070256;28;46497;-66
2021/12/21 10:04:48;;;;;;;23.33;10.40;;;0.80;75.80;;;;;;5075351;28;46041;-65
2021/12/21 10:07:15;;;;;;;18.00;10.07;;;0.90;75.40;;;;;;5056220;28;46508;-67
2021/12/21 10:09:46;;;;;;;41.25;17.05;;;0.90;74.70;;;;;;5054689;28;46290;-66
2021/12/21 10:12:34;;;;;;;34.00;15.25;;;0.90;75.20;;;;;;5051538;28;46465;-66
2021/12/21 10:15:14;;;;;;;21.50;11.90;;;0.90;74.80;;;;;;5072080;28;46552;-66
2021/12/21 10:17:57;;;;;;;41.88;17.52;;;0.90;74.70;;;;;;5062616;28;46567;-65
2021/12/21 10:20:46;;;;;;;21.00;10.77;;;1.00;74.40;;;;;;5061817;28;46410;-67
2021/12/21 10:23:29;;;;;;;38.65;17.15;;;1.10;74.40;;;;;;5072079;28;46385;-66
2021/12/21 10:26:06;;;;;;;16.40;9.43;;;1.20;74.30;;;;;;5051981;28;46416;-66
2021/12/21 10:28:37;;;;;;;50.60;22.15;;;1.50;73.30;;;;;;5050406;28;46455;-66
2021/12/21 10:31:15;;;;;;;40.33;18.23;;;1.50;72.60;;;;;;5062396;28;46418;-67
2021/12/21 10:33:45;;;;;;;44.92;20.77;;;1.60;72.90;;;;;;5060736;28;46438;-66
2021/12/21 10:36:12;;;;;;;28.75;12.90;;;1.70;72.80;;;;;;5055583;28;46385;-65
2021/12/21 10:38:50;;;;;;;26.73;12.65;;;1.70;72.50;;;;;;5060054;28;46597;-66
2021/12/21 10:41:27;;;;;;;17.63;10.40;;;1.50;72.70;;;;;;5071197;28;46472;-66
2021/12/21 10:44:06;;;;;;;16.48;9.80;;;1.50;73.60;;;;;;5074022;28;46441;-66
2021/12/21 10:46:35;;;;;;;23.73;12.50;;;1.50;73.90;;;;;;5058512;28;46513;-66
2021/12/21 10:49:05;;;;;;;21.17;12.40;;;1.40;74.10;;;;;;5055743;28;46458;-66
2021/12/21 10:51:31;;;;;;;21.30;10.80;;;1.60;73.80;;;;;;5061314;28;46344;-66
2021/12/21 10:53:56;;;;;;;19.17;11.27;;;1.70;73.60;;;;;;5058037;28;46472;-66
2021/12/21 10:56:22;;;;;;;21.83;13.18;;;1.60;73.60;;;;;;5055228;28;46463;-65
2021/12/21 10:58:48;;;;;;;22.40;11.67;;;1.40;73.80;;;;;;5069403;28;47463;-65
2021/12/21 11:01:23;;;;;;;19.00;10.70;;;1.40;74.00;;;;;;5046473;28;46410;-65
2021/12/21 11:03:54;;;;;;;19.08;11.35;;;1.50;74.10;;;;;;5053089;28;46122;-66
2021/12/21 11:06:25;;;;;;;24.30;12.40;;;1.50;72.90;;;;;;5067732;28;46525;-65
2021/12/21 11:08:54;;;;;;;18.95;10.20;;;1.50;73.20;;;;;;5053880;28;46462;-66
2021/12/21 11:11:37;;;;;;;17.50;9.88;;;1.50;73.10;;;;;;5061139;28;45786;-66
2021/12/21 11:14:08;;;;;;;19.88;9.73;;;1.70;72.40;;;;;;5060291;28;46486;-66
2021/12/21 11:16:49;;;;;;;19.73;10.65;;;1.90;71.70;;;;;;5060968;28;46360;-65
2021/12/21 11:19:29;;;;;;;28.63;13.70;;;1.80;70.90;;;;;;5052805;28;47834;-64
2021/12/21 11:21:56;;;;;;;20.33;10.75;;;1.60;71.60;;;;;;5068574;28;45800;-66
2021/12/21 11:24:22;;;;;;;22.42;11.65;;;1.50;71.90;;;;;;5049667;28;46383;-66
2021/12/21 11:26:50;;;;;;;25.88;15.02;;;1.30;72.80;;;;;;5051243;28;46677;-65
2021/12/21 11:29:18;;;;;;;24.08;13.40;;;1.30;72.70;;;;;;5053931;28;47945;-64
2021/12/21 11:31:51;;;;;;;20.73;12.13;;;1.50;72.60;;;;;;5051275;28;46258;-64
2021/12/21 11:34:21;;;;;;;27.63;13.25;;;1.70;71.80;;;;;;5052583;28;46438;-66
2021/12/21 11:39:39;;;;;;;23.35;12.80;;;1.70;70.80;;;;;;5068760;28;46741;-65
2021/12/21 11:42:08;;;;;;;23.42;11.40;;;1.70;70.80;;;;;;5052160;28;45918;-66
2021/12/21 11:44:40;;;;;;;21.88;11.32;;;1.70;70.80;;;;;;5071109;28;46398;-67
2021/12/21 11:47:09;;;;;;;18.52;11.00;;;1.60;70.70;;;;;;5053640;28;45925;-67
2021/12/21 11:49:50;;;;;;;20.88;10.98;;;1.50;70.60;;;;;;5061579;28;48148;-66
2021/12/21 11:52:18;;;;;;;25.80;12.40;;;1.50;70.60;;;;;;5064050;28;46377;-67
2021/12/21 11:54:45;;;;;;;18.52;11.55;;;1.60;70.70;;;;;;5057347;28;46396;-65
2021/12/21 11:57:15;;;;;;;20.40;10.75;;;1.50;70.60;;;;;;5052813;28;46392;-65
2021/12/21 11:59:41;;;;;;;20.25;11.50;;;1.50;70.60;;;;;;5060517;28;47783;-67
2021/12/21 12:02:07;;;;;;;20.88;11.57;;;1.50;70.60;;;;;;5058068;28;46444;-66
2021/12/21 12:04:35;;;;;;;21.73;11.15;;;1.50;70.60;;;;;;5057031;28;46429;-65
2021/12/21 12:07:12;;;;;;;20.77;12.07;;;1.60;70.70;;;;;;5063554;28;46570;-67
2021/12/21 12:09:37;;;;;;;24.90;12.18;;;1.60;70.70;;;;;;5058449;28;47909;-68
2021/12/21 12:12:11;;;;;;;20.40;10.80;;;1.60;70.70;;;;;;5055930;28;47176;-65
2021/12/21 12:14:38;;;;;;;20.23;11.05;;;1.50;70.60;;;;;;5069507;28;46459;-66
2021/12/21 12:17:16;;;;;;;22.23;11.57;;;1.50;70.60;;;;;;5056352;28;46654;-67
2021/12/21 12:19:51;;;;;;;27.00;12.07;;;1.50;70.60;;;;;;5051408;28;46310;-66
2021/12/21 12:22:17;;;;;;;20.15;11.80;;;1.20;70.40;;;;;;5063924;27;45918;-65
2021/12/21 12:24:54;;;;;;;21.10;12.10;;;1.10;70.90;;;;;;5061086;28;46847;-65
2021/12/21 12:27:23;;;;;;;23.33;11.57;;;1.30;70.50;;;;;;5057581;28;45908;-65
2021/12/21 12:29:49;;;;;;;21.42;10.63;;;1.30;70.50;;;;;;5051116;28;47739;-66
2021/12/21 12:32:34;;;;;;;19.98;11.15;;;1.40;70.50;;;;;;5048712;28;46398;-66
2021/12/21 12:35:21;;;;;;;28.42;12.40;;;1.50;70.00;;;;;;5056574;28;46598;-66
2021/12/21 12:37:57;;;;;;;22.80;11.23;;;1.60;70.20;;;;;;5069805;28;46459;-65
2021/12/21 12:40:28;;;;;;;17.73;12.05;;;1.70;70.00;;;;;;5056655;28;47796;-66
2021/12/21 12:43:15;;;;;;;22.33;12.52;;;1.70;69.40;;;;;;5059049;28;46634;-66
2021/12/21 12:46:03;;;;;;;16.40;10.27;;;1.70;69.20;;;;;;5057624;28;46456;-66
2021/12/21 12:48:32;;;;;;;24.33;11.18;;;1.50;70.10;;;;;;5062026;28;46310;-65
2021/12/21 12:51:02;;;;;;;20.33;10.45;;;1.30;70.50;;;;;;5057503;28;48847;-65
2021/12/21 12:53:37;;;;;;;16.52;9.80;;;1.30;70.50;;;;;;5070601;28;46475;-66
2021/12/21 12:56:03;;;;;;;15.57;10.23;;;1.30;70.50;;;;;;5054936;28;46717;-66
2021/12/21 12:58:32;;;;;;;20.08;11.32;;;1.40;70.50;;;;;;5059334;28;46398;-66
2021/12/21 13:01:09;;;;;;;20.25;10.95;;;1.20;70.40;;;;;;5052950;28;47699;-66
2021/12/21 13:03:43;;;;;;;27.92;11.95;;;1.20;70.40;;;;;;5053620;28;46433;-66
2021/12/21 13:06:17;;;;;;;21.17;10.88;;;1.30;70.50;;;;;;5060221;28;46441;-65
2021/12/21 13:08:43;;;;;;;19.15;11.93;;;1.40;70.30;;;;;;5055080;28;46449;-65
2021/12/21 13:11:10;;;;;;;18.02;10.80;;;1.50;69.70;;;;;;5058463;28;47407;-65
2021/12/21 13:13:37;;;;;;;19.05;11.57;;;1.50;69.60;;;;;;5057110;28;46572;-66
2021/12/21 13:16:07;;;;;;;20.10;12.13;;;1.50;69.50;;;;;;5060039;28;46412;-66
2021/12/21 13:18:58;;;;;;;15.05;10.30;;;1.60;69.80;;;;;;5065555;28;46547;-66
2021/12/21 13:21:36;;;;;;;15.98;10.73;;;1.60;69.80;;;;;;5055970;28;47898;-66
2021/12/21 13:24:09;;;;;;;14.77;10.07;;;1.30;69.80;;;;;;5064464;28;46583;-65
2021/12/21 13:27:02;;;;;;;17.75;10.50;;;1.30;70.50;;;;;;5050958;28;46393;-65
2021/12/21 13:29:35;;;;;;;17.35;9.43;;;1.30;70.10;;;;;;5065887;28;46772;-67
2021/12/21 13:32:09;;;;;;;18.45;10.45;;;1.40;70.20;;;;;;5053268;28;48221;-66
2021/12/21 13:34:38;;;;;;;19.83;10.50;;;1.40;69.90;;;;;;5056773;28;46381;-64
2021/12/21 13:37:07;;;;;;;23.20;11.98;;;1.50;69.60;;;;;;5059250;28;46425;-66
2021/12/21 13:39:38;;;;;;;14.43;10.05;;;1.40;69.80;;;;;;5059595;28;46408;-66
2021/12/21 13:42:24;;;;;;;17.63;10.57;;;1.40;70.50;;;;;;5058759;28;48996;-66
2021/12/21 13:44:53;;;;;;;19.52;10.80;;;1.40;71.70;;;;;;5055487;28;46573;-67
2021/12/21 13:47:25;;;;;;;18.75;11.35;;;1.30;70.50;;;;;;5051706;28;45807;-66
2021/12/21 13:50:05;;;;;;;19.85;12.35;;;1.20;70.40;;;;;;5073256;27;46436;-67
2021/12/21 13:52:56;;;;;;;22.23;12.35;;;1.20;70.40;;;;;;5058295;28;47342;-65
2021/12/21 13:55:31;;;;;;;21.52;10.20;;;0.90;70.10;;;;;;5064301;28;46423;-67
2021/12/21 13:58:02;;;;;;;22.63;10.80;;;0.60;70.60;;;;;;5072488;28;46337;-66
2021/12/21 14:00:30;;;;;;;15.70;10.20;;;0.70;70.40;;;;;;5051144;28;45831;-67
2021/12/21 14:05:44;;;;;;;26.38;11.02;;;0.80;70.00;;;;;;5075496;28;46296;-68
2021/12/21 14:08:11;;;;;;;20.88;13.23;;;0.80;70.00;;;;;;5056326;28;46440;-65